sensor_id;sensor_type;location;lat;lon;timestamp;temperature;humidity
14119;DHT22;7138;49.246;9.100;2023-07-29T00:00:54;16.80;99.90
14119;DHT22;7138;49.246;9.100;2023-07-29T00:03:21;16.90;99.90
14119;DHT22;7138;49.246;9.100;2023-07-29T00:05:47;16.90;99.90
14119;DHT22;7138;49.246;9.100;2023-07-29T00:08:15;16.90;99.90
14119;DHT22;7138;49.246;9.100;2023-07-29T00:10:41;17.00;99.90
14119;DHT22;7138;49.246;9.100;2023-07-29T00:13:07;17.00;99.90
14119;DHT22;7138;49.246;9.100;2023-07-29T00:15:33;17.00;99.90
14119;DHT22;7138;49.246;9.100;2023-07-29T00:17:59;17.00;99.90
14119;DHT22;7138;49.246;9.100;2023-07-29T00:20:25;16.90;99.90
14119;DHT22;7138;49.246;9.100;2023-07-29T00:22:51;17.00;99.90
14119;DHT22;7138;49.246;9.100;2023-07-29T00:25:21;17.00;99.90
14119;DHT22;7138;49.246;9.100;2023-07-29T00:27:47;17.00;99.90
14119;DHT22;7138;49.246;9.100;2023-07-29T00:30:13;17.10;99.90
14119;DHT22;7138;49.246;9.100;2023-07-29T00:32:38;17.20;99.90
14119;DHT22;7138;49.246;9.100;2023-07-29T00:35:05;17.10;99.90
14119;DHT22;7138;49.246;9.100;2023-07-29T00:37:32;17.20;99.90
14119;DHT22;7138;49.246;9.100;2023-07-29T00:39:58;17.20;99.90
14119;DHT22;7138;49.246;9.100;2023-07-29T00:42:25;17.20;99.90
14119;DHT22;7138;49.246;9.100;2023-07-29T00:44:51;17.10;99.90
14119;DHT22;7138;49.246;9.100;2023-07-29T00:47:18;17.20;99.90
14119;DHT22;7138;49.246;9.100;2023-07-29T00:49:45;17.20;99.90
14119;DHT22;7138;49.246;9.100;2023-07-29T00:52:11;17.20;99.90
14119;DHT22;7138;49.246;9.100;2023-07-29T00:54:38;17.30;99.90
14119;DHT22;7138;49.246;9.100;2023-07-29T00:57:04;17.30;99.90
14119;DHT22;7138;49.246;9.100;2023-07-29T00:59:34;17.20;99.90
14119;DHT22;7138;49.246;9.100;2023-07-29T01:02:01;17.30;99.90
14119;DHT22;7138;49.246;9.100;2023-07-29T01:04:28;17.30;99.90
14119;DHT22;7138;49.246;9.100;2023-07-29T01:07:01;17.30;99.90
14119;DHT22;7138;49.246;9.100;2023-07-29T01:09:38;17.30;99.90
14119;DHT22;7138;49.246;9.100;2023-07-29T01:12:16;17.30;99.90
14119;DHT22;7138;49.246;9.100;2023-07-29T01:14:56;17.30;99.90
14119;DHT22;7138;49.246;9.100;2023-07-29T01:17:32;17.20;99.90
14119;DHT22;7138;49.246;9.100;2023-07-29T01:20:01;17.20;99.90
14119;DHT22;7138;49.246;9.100;2023-07-29T01:22:32;17.20;99.90
14119;DHT22;7138;49.246;9.100;2023-07-29T01:25:01;17.20;99.90
14119;DHT22;7138;49.246;9.100;2023-07-29T01:27:27;17.20;99.90
14119;DHT22;7138;49.246;9.100;2023-07-29T01:29:53;17.20;99.90
14119;DHT22;7138;49.246;9.100;2023-07-29T01:32:25;17.10;99.90
14119;DHT22;7138;49.246;9.100;2023-07-29T01:35:03;17.20;99.90
14119;DHT22;7138;49.246;9.100;2023-07-29T01:37:37;17.20;99.90
14119;DHT22;7138;49.246;9.100;2023-07-29T01:40:09;17.20;99.90
14119;DHT22;7138;49.246;9.100;2023-07-29T01:42:36;17.20;99.90
14119;DHT22;7138;49.246;9.100;2023-07-29T01:45:03;17.10;99.90
14119;DHT22;7138;49.246;9.100;2023-07-29T01:47:30;17.10;99.90
14119;DHT22;7138;49.246;9.100;2023-07-29T01:49:56;17.10;99.90
14119;DHT22;7138;49.246;9.100;2023-07-29T01:52:22;17.10;99.90
14119;DHT22;7138;49.246;9.100;2023-07-29T01:54:48;17.10;99.90
14119;DHT22;7138;49.246;9.100;2023-07-29T01:57:15;17.20;99.90
14119;DHT22;7138;49.246;9.100;2023-07-29T01:59:41;17.20;99.90
14119;DHT22;7138;49.246;9.100;2023-07-29T02:02:07;17.20;99.90
14119;DHT22;7138;49.246;9.100;2023-07-29T02:04:33;17.20;99.90
14119;DHT22;7138;49.246;9.100;2023-07-29T02:06:59;17.20;99.90
14119;DHT22;7138;49.246;9.100;2023-07-29T02:09:24;17.20;99.90
14119;DHT22;7138;49.246;9.100;2023-07-29T02:11:51;17.20;99.90
14119;DHT22;7138;49.246;9.100;2023-07-29T02:14:18;17.10;99.90
14119;DHT22;7138;49.246;9.100;2023-07-29T02:16:44;17.10;99.90
14119;DHT22;7138;49.246;9.100;2023-07-29T02:19:10;17.20;99.90
14119;DHT22;7138;49.246;9.100;2023-07-29T02:21:36;17.20;99.90
14119;DHT22;7138;49.246;9.100;2023-07-29T02:24:01;17.20;99.90
14119;DHT22;7138;49.246;9.100;2023-07-29T02:26:27;17.20;99.90
14119;DHT22;7138;49.246;9.100;2023-07-29T02:28:53;17.20;99.90
14119;DHT22;7138;49.246;9.100;2023-07-29T02:31:25;17.20;99.90
14119;DHT22;7138;49.246;9.100;2023-07-29T02:33:51;17.20;99.90
14119;DHT22;7138;49.246;9.100;2023-07-29T02:36:17;17.20;99.90
14119;DHT22;7138;49.246;9.100;2023-07-29T02:38:44;17.20;99.90
14119;DHT22;7138;49.246;9.100;2023-07-29T02:41:10;17.20;99.90
14119;DHT22;7138;49.246;9.100;2023-07-29T02:43:38;17.20;99.90
14119;DHT22;7138;49.246;9.100;2023-07-29T02:46:04;17.20;99.90
14119;DHT22;7138;49.246;9.100;2023-07-29T02:48:31;17.20;99.90
14119;DHT22;7138;49.246;9.100;2023-07-29T02:50:57;17.20;99.90
14119;DHT22;7138;49.246;9.100;2023-07-29T02:53:23;17.20;99.90
14119;DHT22;7138;49.246;9.100;2023-07-29T02:55:50;17.20;99.90
14119;DHT22;7138;49.246;9.100;2023-07-29T02:58:16;17.20;99.90
14119;DHT22;7138;49.246;9.100;2023-07-29T03:00:42;17.20;99.90
14119;DHT22;7138;49.246;9.100;2023-07-29T03:03:09;17.20;99.90
14119;DHT22;7138;49.246;9.100;2023-07-29T03:05:36;17.20;99.90
14119;DHT22;7138;49.246;9.100;2023-07-29T03:08:03;17.10;99.90
14119;DHT22;7138;49.246;9.100;2023-07-29T03:10:29;17.10;99.90
14119;DHT22;7138;49.246;9.100;2023-07-29T03:12:55;17.10;99.90
14119;DHT22;7138;49.246;9.100;2023-07-29T03:15:23;17.10;99.90
14119;DHT22;7138;49.246;9.100;2023-07-29T03:17:50;17.10;99.90
14119;DHT22;7138;49.246;9.100;2023-07-29T03:20:15;17.10;99.90
14119;DHT22;7138;49.246;9.100;2023-07-29T03:22:44;17.20;99.90
14119;DHT22;7138;49.246;9.100;2023-07-29T03:25:10;17.10;99.90
14119;DHT22;7138;49.246;9.100;2023-07-29T03:27:36;17.10;99.90
14119;DHT22;7138;49.246;9.100;2023-07-29T03:30:03;17.10;99.90
14119;DHT22;7138;49.246;9.100;2023-07-29T03:32:29;17.10;99.90
14119;DHT22;7138;49.246;9.100;2023-07-29T03:34:55;17.10;99.90
14119;DHT22;7138;49.246;9.100;2023-07-29T03:37:21;17.10;99.90
14119;DHT22;7138;49.246;9.100;2023-07-29T03:39:48;17.10;99.90
14119;DHT22;7138;49.246;9.100;2023-07-29T03:42:14;17.10;99.90
14119;DHT22;7138;49.246;9.100;2023-07-29T03:44:39;17.00;99.90
14119;DHT22;7138;49.246;9.100;2023-07-29T03:47:05;17.00;99.90
14119;DHT22;7138;49.246;9.100;2023-07-29T03:49:31;17.00;99.90
14119;DHT22;7138;49.246;9.100;2023-07-29T03:51:57;17.00;99.90
14119;DHT22;7138;49.246;9.100;2023-07-29T03:54:23;16.90;99.90
14119;DHT22;7138;49.246;9.100;2023-07-29T03:56:50;16.90;99.90
14119;DHT22;7138;49.246;9.100;2023-07-29T03:59:17;17.00;99.90
14119;DHT22;7138;49.246;9.100;2023-07-29T04:01:43;17.00;99.90
14119;DHT22;7138;49.246;9.100;2023-07-29T04:04:09;17.00;99.90
14119;DHT22;7138;49.246;9.100;2023-07-29T04:06:35;17.00;99.90
14119;DHT22;7138;49.246;9.100;2023-07-29T04:09:01;17.00;99.90
14119;DHT22;7138;49.246;9.100;2023-07-29T04:11:26;17.00;99.90
14119;DHT22;7138;49.246;9.100;2023-07-29T04:13:54;17.00;99.90
14119;DHT22;7138;49.246;9.100;2023-07-29T04:16:23;17.00;99.90
14119;DHT22;7138;49.246;9.100;2023-07-29T04:18:48;17.00;99.90
14119;DHT22;7138;49.246;9.100;2023-07-29T04:21:14;17.00;99.90
14119;DHT22;7138;49.246;9.100;2023-07-29T04:23:40;17.00;99.90
14119;DHT22;7138;49.246;9.100;2023-07-29T04:26:06;17.00;99.90
14119;DHT22;7138;49.246;9.100;2023-07-29T04:28:32;17.00;99.90
14119;DHT22;7138;49.246;9.100;2023-07-29T04:30:59;17.00;99.90
14119;DHT22;7138;49.246;9.100;2023-07-29T04:33:25;17.00;99.90
14119;DHT22;7138;49.246;9.100;2023-07-29T04:35:51;17.10;99.90
14119;DHT22;7138;49.246;9.100;2023-07-29T04:38:16;17.10;99.90
14119;DHT22;7138;49.246;9.100;2023-07-29T04:40:42;17.10;99.90
14119;DHT22;7138;49.246;9.100;2023-07-29T04:43:08;17.10;99.90
14119;DHT22;7138;49.246;9.100;2023-07-29T04:45:34;17.10;99.90
14119;DHT22;7138;49.246;9.100;2023-07-29T04:48:01;17.10;99.90
14119;DHT22;7138;49.246;9.100;2023-07-29T04:50:27;17.10;99.90
14119;DHT22;7138;49.246;9.100;2023-07-29T04:52:53;17.10;99.90
14119;DHT22;7138;49.246;9.100;2023-07-29T04:55:19;17.10;99.90
14119;DHT22;7138;49.246;9.100;2023-07-29T04:57:45;17.10;99.90
14119;DHT22;7138;49.246;9.100;2023-07-29T05:00:11;17.10;99.90
14119;DHT22;7138;49.246;9.100;2023-07-29T05:02:37;17.10;99.90
14119;DHT22;7138;49.246;9.100;2023-07-29T05:05:05;17.00;99.90
14119;DHT22;7138;49.246;9.100;2023-07-29T05:07:31;17.10;99.90
14119;DHT22;7138;49.246;9.100;2023-07-29T05:09:57;17.00;99.90
14119;DHT22;7138;49.246;9.100;2023-07-29T05:12:23;17.10;99.90
14119;DHT22;7138;49.246;9.100;2023-07-29T05:14:49;17.00;99.90
14119;DHT22;7138;49.246;9.100;2023-07-29T05:17:15;17.00;99.90
14119;DHT22;7138;49.246;9.100;2023-07-29T05:19:41;17.00;99.90
14119;DHT22;7138;49.246;9.100;2023-07-29T05:22:09;17.00;99.90
14119;DHT22;7138;49.246;9.100;2023-07-29T05:24:35;17.00;99.90
14119;DHT22;7138;49.246;9.100;2023-07-29T05:27:01;17.10;99.90
14119;DHT22;7138;49.246;9.100;2023-07-29T05:29:27;17.10;99.90
14119;DHT22;7138;49.246;9.100;2023-07-29T05:31:53;17.10;99.90
14119;DHT22;7138;49.246;9.100;2023-07-29T05:34:19;17.10;99.90
14119;DHT22;7138;49.246;9.100;2023-07-29T05:36:45;17.20;99.90
14119;DHT22;7138;49.246;9.100;2023-07-29T05:39:13;17.20;99.90
14119;DHT22;7138;49.246;9.100;2023-07-29T05:41:39;17.20;99.90
14119;DHT22;7138;49.246;9.100;2023-07-29T05:44:05;17.20;99.90
14119;DHT22;7138;49.246;9.100;2023-07-29T05:46:30;17.20;99.90
14119;DHT22;7138;49.246;9.100;2023-07-29T05:48:56;17.20;99.90
14119;DHT22;7138;49.246;9.100;2023-07-29T05:51:22;17.20;99.90
14119;DHT22;7138;49.246;9.100;2023-07-29T05:53:48;17.20;99.90
14119;DHT22;7138;49.246;9.100;2023-07-29T05:56:15;17.20;99.90
14119;DHT22;7138;49.246;9.100;2023-07-29T05:58:41;17.30;99.90
14119;DHT22;7138;49.246;9.100;2023-07-29T06:01:07;17.40;99.90
14119;DHT22;7138;49.246;9.100;2023-07-29T06:03:32;17.40;99.90
14119;DHT22;7138;49.246;9.100;2023-07-29T06:05:58;17.50;99.90
14119;DHT22;7138;49.246;9.100;2023-07-29T06:08:24;17.50;99.90
14119;DHT22;7138;49.246;9.100;2023-07-29T06:10:53;17.60;99.90
14119;DHT22;7138;49.246;9.100;2023-07-29T06:13:21;17.60;99.90
14119;DHT22;7138;49.246;9.100;2023-07-29T06:15:46;17.70;99.90
14119;DHT22;7138;49.246;9.100;2023-07-29T06:18:12;17.80;99.90
14119;DHT22;7138;49.246;9.100;2023-07-29T06:20:38;17.90;99.90
14119;DHT22;7138;49.246;9.100;2023-07-29T06:23:04;17.90;99.90
14119;DHT22;7138;49.246;9.100;2023-07-29T06:25:30;17.90;99.90
14119;DHT22;7138;49.246;9.100;2023-07-29T06:27:56;17.90;99.90
14119;DHT22;7138;49.246;9.100;2023-07-29T06:30:25;18.00;99.90
14119;DHT22;7138;49.246;9.100;2023-07-29T06:32:51;18.00;99.90
14119;DHT22;7138;49.246;9.100;2023-07-29T06:35:17;18.00;99.90
14119;DHT22;7138;49.246;9.100;2023-07-29T06:37:42;18.10;99.90
14119;DHT22;7138;49.246;9.100;2023-07-29T06:40:09;18.50;99.90
14119;DHT22;7138;49.246;9.100;2023-07-29T06:42:35;18.50;99.90
14119;DHT22;7138;49.246;9.100;2023-07-29T06:45:03;18.40;99.90
14119;DHT22;7138;49.246;9.100;2023-07-29T06:47:31;18.40;99.90
14119;DHT22;7138;49.246;9.100;2023-07-29T06:49:57;18.30;99.90
14119;DHT22;7138;49.246;9.100;2023-07-29T06:52:22;18.30;99.90
14119;DHT22;7138;49.246;9.100;2023-07-29T06:54:48;18.20;99.90
14119;DHT22;7138;49.246;9.100;2023-07-29T06:57:14;18.10;99.90
14119;DHT22;7138;49.246;9.100;2023-07-29T06:59:40;18.10;99.90
14119;DHT22;7138;49.246;9.100;2023-07-29T07:02:07;18.20;99.90
14119;DHT22;7138;49.246;9.100;2023-07-29T07:04:34;18.20;99.90
14119;DHT22;7138;49.246;9.100;2023-07-29T07:07:00;18.40;99.90
14119;DHT22;7138;49.246;9.100;2023-07-29T07:09:26;18.50;99.90
14119;DHT22;7138;49.246;9.100;2023-07-29T07:11:52;18.50;99.90
14119;DHT22;7138;49.246;9.100;2023-07-29T07:14:18;18.60;99.90
14119;DHT22;7138;49.246;9.100;2023-07-29T07:16:44;18.70;99.90
14119;DHT22;7138;49.246;9.100;2023-07-29T07:19:10;18.70;99.90
14119;DHT22;7138;49.246;9.100;2023-07-29T07:21:37;18.60;99.90
14119;DHT22;7138;49.246;9.100;2023-07-29T07:24:03;18.50;99.90
14119;DHT22;7138;49.246;9.100;2023-07-29T07:26:30;18.40;99.90
14119;DHT22;7138;49.246;9.100;2023-07-29T07:28:55;18.40;99.90
14119;DHT22;7138;49.246;9.100;2023-07-29T07:31:22;18.50;99.90
14119;DHT22;7138;49.246;9.100;2023-07-29T07:33:48;18.60;99.90
14119;DHT22;7138;49.246;9.100;2023-07-29T07:36:13;18.70;99.90
14119;DHT22;7138;49.246;9.100;2023-07-29T07:38:42;18.80;99.90
14119;DHT22;7138;49.246;9.100;2023-07-29T07:41:08;19.50;99.90
14119;DHT22;7138;49.246;9.100;2023-07-29T07:43:34;19.90;99.90
14119;DHT22;7138;49.246;9.100;2023-07-29T07:46:01;20.00;99.90
14119;DHT22;7138;49.246;9.100;2023-07-29T07:48:27;19.90;99.90
14119;DHT22;7138;49.246;9.100;2023-07-29T07:50:53;20.00;99.90
14119;DHT22;7138;49.246;9.100;2023-07-29T07:53:19;20.00;99.90
14119;DHT22;7138;49.246;9.100;2023-07-29T07:55:46;19.90;99.90
14119;DHT22;7138;49.246;9.100;2023-07-29T07:58:12;20.00;99.90
14119;DHT22;7138;49.246;9.100;2023-07-29T08:00:39;20.30;99.90
14119;DHT22;7138;49.246;9.100;2023-07-29T08:03:04;20.20;99.90
14119;DHT22;7138;49.246;9.100;2023-07-29T08:05:30;20.30;99.90
14119;DHT22;7138;49.246;9.100;2023-07-29T08:07:57;20.40;99.90
14119;DHT22;7138;49.246;9.100;2023-07-29T08:10:23;20.30;99.90
14119;DHT22;7138;49.246;9.100;2023-07-29T08:12:50;20.40;99.90
14119;DHT22;7138;49.246;9.100;2023-07-29T08:15:16;20.40;99.90
14119;DHT22;7138;49.246;9.100;2023-07-29T08:17:42;20.40;99.90
14119;DHT22;7138;49.246;9.100;2023-07-29T08:20:08;20.40;99.90
14119;DHT22;7138;49.246;9.100;2023-07-29T08:22:35;20.00;99.90
14119;DHT22;7138;49.246;9.100;2023-07-29T08:25:01;19.90;99.90
14119;DHT22;7138;49.246;9.100;2023-07-29T08:27:26;20.00;99.90
14119;DHT22;7138;49.246;9.100;2023-07-29T08:29:55;20.30;99.90
14119;DHT22;7138;49.246;9.100;2023-07-29T08:32:20;20.20;99.90
14119;DHT22;7138;49.246;9.100;2023-07-29T08:34:46;20.20;99.90
14119;DHT22;7138;49.246;9.100;2023-07-29T08:37:12;20.20;99.90
14119;DHT22;7138;49.246;9.100;2023-07-29T08:39:38;20.20;99.90
14119;DHT22;7138;49.246;9.100;2023-07-29T08:42:07;20.60;99.90
14119;DHT22;7138;49.246;9.100;2023-07-29T08:44:42;20.60;99.90
14119;DHT22;7138;49.246;9.100;2023-07-29T08:47:11;20.50;99.90
14119;DHT22;7138;49.246;9.100;2023-07-29T08:49:38;20.40;99.90
14119;DHT22;7138;49.246;9.100;2023-07-29T08:52:07;20.40;99.90
14119;DHT22;7138;49.246;9.100;2023-07-29T08:54:33;20.30;99.90
14119;DHT22;7138;49.246;9.100;2023-07-29T08:56:59;20.20;99.90
14119;DHT22;7138;49.246;9.100;2023-07-29T08:59:26;20.20;99.90
14119;DHT22;7138;49.246;9.100;2023-07-29T09:01:54;20.30;99.90
14119;DHT22;7138;49.246;9.100;2023-07-29T09:04:23;20.80;99.90
14119;DHT22;7138;49.246;9.100;2023-07-29T09:06:51;21.00;99.90
14119;DHT22;7138;49.246;9.100;2023-07-29T09:09:19;21.50;99.90
14119;DHT22;7138;49.246;9.100;2023-07-29T09:11:46;21.70;99.90
14119;DHT22;7138;49.246;9.100;2023-07-29T09:14:12;21.40;99.90
14119;DHT22;7138;49.246;9.100;2023-07-29T09:16:39;21.10;99.90
14119;DHT22;7138;49.246;9.100;2023-07-29T09:19:05;21.00;99.90
14119;DHT22;7138;49.246;9.100;2023-07-29T09:21:32;20.80;99.90
14119;DHT22;7138;49.246;9.100;2023-07-29T09:24:03;20.70;99.90
14119;DHT22;7138;49.246;9.100;2023-07-29T09:26:30;20.60;99.90
14119;DHT22;7138;49.246;9.100;2023-07-29T09:28:57;20.70;99.90
14119;DHT22;7138;49.246;9.100;2023-07-29T09:31:25;20.60;99.90
14119;DHT22;7138;49.246;9.100;2023-07-29T09:33:55;20.70;99.90
14119;DHT22;7138;49.246;9.100;2023-07-29T09:36:23;21.20;99.90
14119;DHT22;7138;49.246;9.100;2023-07-29T09:38:52;22.10;99.90
14119;DHT22;7138;49.246;9.100;2023-07-29T09:41:22;22.50;99.90
14119;DHT22;7138;49.246;9.100;2023-07-29T09:43:55;23.00;99.90
14119;DHT22;7138;49.246;9.100;2023-07-29T09:46:23;22.90;99.90
14119;DHT22;7138;49.246;9.100;2023-07-29T09:48:53;22.30;99.90
14119;DHT22;7138;49.246;9.100;2023-07-29T09:51:23;22.00;99.90
14119;DHT22;7138;49.246;9.100;2023-07-29T09:53:50;22.20;99.90
14119;DHT22;7138;49.246;9.100;2023-07-29T09:56:18;22.10;99.90
14119;DHT22;7138;49.246;9.100;2023-07-29T09:58:51;22.00;99.90
14119;DHT22;7138;49.246;9.100;2023-07-29T10:01:17;22.10;99.90
14119;DHT22;7138;49.246;9.100;2023-07-29T10:03:44;22.10;99.90
14119;DHT22;7138;49.246;9.100;2023-07-29T10:06:11;22.00;99.90
14119;DHT22;7138;49.246;9.100;2023-07-29T10:08:39;21.60;99.90
14119;DHT22;7138;49.246;9.100;2023-07-29T10:11:08;21.30;99.90
14119;DHT22;7138;49.246;9.100;2023-07-29T10:13:36;21.40;99.90
14119;DHT22;7138;49.246;9.100;2023-07-29T10:16:03;21.70;99.90
14119;DHT22;7138;49.246;9.100;2023-07-29T10:18:31;22.10;99.90
14119;DHT22;7138;49.246;9.100;2023-07-29T10:20:59;22.10;99.90
14119;DHT22;7138;49.246;9.100;2023-07-29T10:23:27;22.40;99.90
14119;DHT22;7138;49.246;9.100;2023-07-29T10:26:03;22.50;99.90
14119;DHT22;7138;49.246;9.100;2023-07-29T10:28:32;22.90;99.90
14119;DHT22;7138;49.246;9.100;2023-07-29T10:31:03;23.00;99.90
14119;DHT22;7138;49.246;9.100;2023-07-29T10:33:31;23.30;99.90
14119;DHT22;7138;49.246;9.100;2023-07-29T10:35:59;23.30;99.90
14119;DHT22;7138;49.246;9.100;2023-07-29T10:38:26;22.70;99.90
14119;DHT22;7138;49.246;9.100;2023-07-29T10:40:54;22.70;99.90
14119;DHT22;7138;49.246;9.100;2023-07-29T10:43:25;22.90;99.90
14119;DHT22;7138;49.246;9.100;2023-07-29T10:45:54;22.60;99.90
14119;DHT22;7138;49.246;9.100;2023-07-29T10:48:42;22.70;99.90
14119;DHT22;7138;49.246;9.100;2023-07-29T10:51:24;23.10;99.90
14119;DHT22;7138;49.246;9.100;2023-07-29T10:53:55;23.40;99.90
14119;DHT22;7138;49.246;9.100;2023-07-29T10:56:27;23.70;99.90
14119;DHT22;7138;49.246;9.100;2023-07-29T10:58:59;23.20;99.90
14119;DHT22;7138;49.246;9.100;2023-07-29T11:01:53;23.30;99.90
14119;DHT22;7138;49.246;9.100;2023-07-29T11:04:27;23.20;99.90
14119;DHT22;7138;49.246;9.100;2023-07-29T11:07:22;23.10;99.90
14119;DHT22;7138;49.246;9.100;2023-07-29T11:09:54;22.40;99.90
14119;DHT22;7138;49.246;9.100;2023-07-29T11:12:42;21.70;99.90
14119;DHT22;7138;49.246;9.100;2023-07-29T11:15:22;20.90;99.90
14119;DHT22;7138;49.246;9.100;2023-07-29T11:17:51;21.00;99.90
14119;DHT22;7138;49.246;9.100;2023-07-29T11:20:19;21.60;99.90
14119;DHT22;7138;49.246;9.100;2023-07-29T11:22:47;21.60;99.90
14119;DHT22;7138;49.246;9.100;2023-07-29T11:25:14;21.60;99.90
14119;DHT22;7138;49.246;9.100;2023-07-29T11:27:42;21.80;99.90
14119;DHT22;7138;49.246;9.100;2023-07-29T11:30:09;22.00;99.90
14119;DHT22;7138;49.246;9.100;2023-07-29T11:32:37;22.30;99.90
14119;DHT22;7138;49.246;9.100;2023-07-29T11:35:07;22.30;99.90
14119;DHT22;7138;49.246;9.100;2023-07-29T11:37:36;22.60;99.90
14119;DHT22;7138;49.246;9.100;2023-07-29T11:40:02;23.10;99.90
14119;DHT22;7138;49.246;9.100;2023-07-29T11:42:31;23.10;99.90
14119;DHT22;7138;49.246;9.100;2023-07-29T11:44:59;22.80;99.90
14119;DHT22;7138;49.246;9.100;2023-07-29T11:47:25;22.60;99.90
14119;DHT22;7138;49.246;9.100;2023-07-29T11:49:51;23.00;99.90
14119;DHT22;7138;49.246;9.100;2023-07-29T11:52:19;23.30;99.90
14119;DHT22;7138;49.246;9.100;2023-07-29T11:54:46;23.00;99.90
14119;DHT22;7138;49.246;9.100;2023-07-29T11:57:13;22.80;99.90
14119;DHT22;7138;49.246;9.100;2023-07-29T11:59:43;22.70;99.90
14119;DHT22;7138;49.246;9.100;2023-07-29T12:02:13;22.40;99.90
14119;DHT22;7138;49.246;9.100;2023-07-29T12:04:41;22.30;99.90
14119;DHT22;7138;49.246;9.100;2023-07-29T12:07:10;22.30;99.90
14119;DHT22;7138;49.246;9.100;2023-07-29T12:09:39;22.40;99.90
14119;DHT22;7138;49.246;9.100;2023-07-29T12:12:06;22.90;99.90
14119;DHT22;7138;49.246;9.100;2023-07-29T12:14:33;23.20;99.90
14119;DHT22;7138;49.246;9.100;2023-07-29T12:17:01;23.00;99.90
14119;DHT22;7138;49.246;9.100;2023-07-29T12:19:31;23.00;99.90
14119;DHT22;7138;49.246;9.100;2023-07-29T12:21:58;23.30;99.90
14119;DHT22;7138;49.246;9.100;2023-07-29T12:24:24;23.40;99.90
14119;DHT22;7138;49.246;9.100;2023-07-29T12:26:51;23.10;99.90
14119;DHT22;7138;49.246;9.100;2023-07-29T12:29:19;22.80;99.90
14119;DHT22;7138;49.246;9.100;2023-07-29T12:31:48;22.80;99.90
14119;DHT22;7138;49.246;9.100;2023-07-29T12:34:17;22.90;99.90
14119;DHT22;7138;49.246;9.100;2023-07-29T12:36:45;23.20;99.90
14119;DHT22;7138;49.246;9.100;2023-07-29T12:39:19;23.60;99.90
14119;DHT22;7138;49.246;9.100;2023-07-29T12:41:46;23.80;99.90
14119;DHT22;7138;49.246;9.100;2023-07-29T12:44:14;23.70;99.90
14119;DHT22;7138;49.246;9.100;2023-07-29T12:46:41;23.60;99.90
14119;DHT22;7138;49.246;9.100;2023-07-29T12:49:07;23.40;99.90
14119;DHT22;7138;49.246;9.100;2023-07-29T12:51:33;23.50;99.90
14119;DHT22;7138;49.246;9.100;2023-07-29T12:54:00;23.60;99.90
14119;DHT22;7138;49.246;9.100;2023-07-29T12:56:26;23.60;99.90
14119;DHT22;7138;49.246;9.100;2023-07-29T12:58:52;23.80;99.90
14119;DHT22;7138;49.246;9.100;2023-07-29T13:01:22;23.90;99.90
14119;DHT22;7138;49.246;9.100;2023-07-29T13:03:48;24.10;99.90
14119;DHT22;7138;49.246;9.100;2023-07-29T13:06:14;24.30;99.90
14119;DHT22;7138;49.246;9.100;2023-07-29T13:08:41;24.30;99.90
14119;DHT22;7138;49.246;9.100;2023-07-29T13:11:07;24.20;99.90
14119;DHT22;7138;49.246;9.100;2023-07-29T13:13:33;24.10;99.90
14119;DHT22;7138;49.246;9.100;2023-07-29T13:15:59;24.10;99.90
14119;DHT22;7138;49.246;9.100;2023-07-29T13:18:27;24.20;99.90
14119;DHT22;7138;49.246;9.100;2023-07-29T13:20:53;24.40;99.90
14119;DHT22;7138;49.246;9.100;2023-07-29T13:23:19;24.30;99.90
14119;DHT22;7138;49.246;9.100;2023-07-29T13:25:46;24.60;99.90
14119;DHT22;7138;49.246;9.100;2023-07-29T13:28:12;24.60;99.90
14119;DHT22;7138;49.246;9.100;2023-07-29T13:30:38;24.50;99.90
14119;DHT22;7138;49.246;9.100;2023-07-29T13:33:04;24.70;99.90
14119;DHT22;7138;49.246;9.100;2023-07-29T13:35:32;24.40;99.90
14119;DHT22;7138;49.246;9.100;2023-07-29T13:37:59;24.70;99.90
14119;DHT22;7138;49.246;9.100;2023-07-29T13:40:25;24.70;99.90
14119;DHT22;7138;49.246;9.100;2023-07-29T13:42:50;24.80;99.90
14119;DHT22;7138;49.246;9.100;2023-07-29T13:45:17;24.80;99.90
14119;DHT22;7138;49.246;9.100;2023-07-29T13:47:43;24.70;99.90
14119;DHT22;7138;49.246;9.100;2023-07-29T13:50:09;24.80;99.90
14119;DHT22;7138;49.246;9.100;2023-07-29T13:52:37;25.10;99.90
14119;DHT22;7138;49.246;9.100;2023-07-29T13:55:04;25.10;99.90
14119;DHT22;7138;49.246;9.100;2023-07-29T13:57:31;24.90;99.90
14119;DHT22;7138;49.246;9.100;2023-07-29T13:59:57;25.00;99.90
14119;DHT22;7138;49.246;9.100;2023-07-29T14:02:23;25.00;99.90
14119;DHT22;7138;49.246;9.100;2023-07-29T14:04:49;24.80;99.90
14119;DHT22;7138;49.246;9.100;2023-07-29T14:07:15;24.40;99.90
14119;DHT22;7138;49.246;9.100;2023-07-29T14:09:42;24.20;99.90
14119;DHT22;7138;49.246;9.100;2023-07-29T14:12:08;24.10;99.90
14119;DHT22;7138;49.246;9.100;2023-07-29T14:14:37;24.40;99.90
14119;DHT22;7138;49.246;9.100;2023-07-29T14:17:03;24.80;99.90
14119;DHT22;7138;49.246;9.100;2023-07-29T14:19:30;25.20;99.90
14119;DHT22;7138;49.246;9.100;2023-07-29T14:21:56;25.30;99.90
14119;DHT22;7138;49.246;9.100;2023-07-29T14:24:22;25.20;99.90
14119;DHT22;7138;49.246;9.100;2023-07-29T14:26:49;25.00;99.90
14119;DHT22;7138;49.246;9.100;2023-07-29T14:29:15;24.40;99.90
14119;DHT22;7138;49.246;9.100;2023-07-29T14:31:41;24.70;99.90
14119;DHT22;7138;49.246;9.100;2023-07-29T14:34:07;24.80;99.90
14119;DHT22;7138;49.246;9.100;2023-07-29T14:36:32;25.10;99.90
14119;DHT22;7138;49.246;9.100;2023-07-29T14:38:58;25.10;99.90
14119;DHT22;7138;49.246;9.100;2023-07-29T14:41:24;25.00;99.90
14119;DHT22;7138;49.246;9.100;2023-07-29T14:43:51;25.20;99.90
14119;DHT22;7138;49.246;9.100;2023-07-29T14:46:17;25.20;99.90
14119;DHT22;7138;49.246;9.100;2023-07-29T14:48:43;25.20;99.90
14119;DHT22;7138;49.246;9.100;2023-07-29T14:51:09;25.30;99.90
14119;DHT22;7138;49.246;9.100;2023-07-29T14:53:34;25.60;99.90
14119;DHT22;7138;49.246;9.100;2023-07-29T14:56:00;25.70;99.90
14119;DHT22;7138;49.246;9.100;2023-07-29T14:58:26;25.70;99.90
14119;DHT22;7138;49.246;9.100;2023-07-29T15:00:53;25.60;99.90
14119;DHT22;7138;49.246;9.100;2023-07-29T15:03:19;25.70;99.90
14119;DHT22;7138;49.246;9.100;2023-07-29T15:05:45;25.40;99.90
14119;DHT22;7138;49.246;9.100;2023-07-29T15:08:11;24.90;99.90
14119;DHT22;7138;49.246;9.100;2023-07-29T15:10:37;25.00;99.90
14119;DHT22;7138;49.246;9.100;2023-07-29T15:13:03;25.20;99.90
14119;DHT22;7138;49.246;9.100;2023-07-29T15:15:28;25.10;99.90
14119;DHT22;7138;49.246;9.100;2023-07-29T15:17:56;24.90;99.90
14119;DHT22;7138;49.246;9.100;2023-07-29T15:20:22;24.70;99.90
14119;DHT22;7138;49.246;9.100;2023-07-29T15:22:48;24.50;99.90
14119;DHT22;7138;49.246;9.100;2023-07-29T15:25:14;24.40;99.90
14119;DHT22;7138;49.246;9.100;2023-07-29T15:27:40;24.30;99.90
14119;DHT22;7138;49.246;9.100;2023-07-29T15:30:06;24.40;99.90
14119;DHT22;7138;49.246;9.100;2023-07-29T15:32:33;24.50;99.90
14119;DHT22;7138;49.246;9.100;2023-07-29T15:35:00;24.80;99.90
14119;DHT22;7138;49.246;9.100;2023-07-29T15:37:26;25.00;99.90
14119;DHT22;7138;49.246;9.100;2023-07-29T15:39:52;24.90;99.90
14119;DHT22;7138;49.246;9.100;2023-07-29T15:42:18;25.00;99.90
14119;DHT22;7138;49.246;9.100;2023-07-29T15:44:44;24.90;99.90